sensor_id;sensor_type;location;lat;lon;timestamp;temperature;humidity
15991;DHT22;8100;50.994;4.538;2023-09-19T00:01:40;14.90;99.90
15991;DHT22;8100;50.994;4.538;2023-09-19T00:04:31;14.90;98.90
15991;DHT22;8100;50.994;4.538;2023-09-19T00:07:18;14.80;91.30
15991;DHT22;8100;50.994;4.538;2023-09-19T00:10:07;14.80;98.60
15991;DHT22;8100;50.994;4.538;2023-09-19T00:12:56;14.80;76.70
15991;DHT22;8100;50.994;4.538;2023-09-19T00:15:46;14.90;65.30
15991;DHT22;8100;50.994;4.538;2023-09-19T00:18:34;14.90;85.40
15991;DHT22;8100;50.994;4.538;2023-09-19T00:21:23;14.80;99.90
15991;DHT22;8100;50.994;4.538;2023-09-19T00:24:10;14.80;97.20
15991;DHT22;8100;50.994;4.538;2023-09-19T00:26:57;14.80;87.90
15991;DHT22;8100;50.994;4.538;2023-09-19T00:29:45;14.80;54.20
15991;DHT22;8100;50.994;4.538;2023-09-19T00:32:33;14.80;64.10
15991;DHT22;8100;50.994;4.538;2023-09-19T00:35:20;14.80;51.60
15991;DHT22;8100;50.994;4.538;2023-09-19T00:38:09;14.80;5.20
15991;DHT22;8100;50.994;4.538;2023-09-19T00:40:56;14.70;1.00
15991;DHT22;8100;50.994;4.538;2023-09-19T00:43:45;14.70;15.20
15991;DHT22;8100;50.994;4.538;2023-09-19T00:46:33;14.70;18.90
15991;DHT22;8100;50.994;4.538;2023-09-19T00:49:21;14.70;37.60
15991;DHT22;8100;50.994;4.538;2023-09-19T00:52:08;14.60;73.80
15991;DHT22;8100;50.994;4.538;2023-09-19T00:54:58;14.50;99.90
15991;DHT22;8100;50.994;4.538;2023-09-19T00:57:46;14.50;99.90
15991;DHT22;8100;50.994;4.538;2023-09-19T01:00:36;14.50;99.90
15991;DHT22;8100;50.994;4.538;2023-09-19T01:03:23;14.40;99.90
15991;DHT22;8100;50.994;4.538;2023-09-19T01:06:11;14.40;99.90
15991;DHT22;8100;50.994;4.538;2023-09-19T01:08:58;14.40;99.90
15991;DHT22;8100;50.994;4.538;2023-09-19T01:11:48;14.40;99.90
15991;DHT22;8100;50.994;4.538;2023-09-19T01:14:44;14.40;99.90
15991;DHT22;8100;50.994;4.538;2023-09-19T01:17:39;14.30;99.90
15991;DHT22;8100;50.994;4.538;2023-09-19T01:20:37;14.20;99.90
15991;DHT22;8100;50.994;4.538;2023-09-19T01:23:37;14.20;99.90
15991;DHT22;8100;50.994;4.538;2023-09-19T01:26:45;14.10;99.90
15991;DHT22;8100;50.994;4.538;2023-09-19T01:29:44;14.10;99.90
15991;DHT22;8100;50.994;4.538;2023-09-19T01:32:34;14.10;99.90
15991;DHT22;8100;50.994;4.538;2023-09-19T01:35:23;14.20;99.90
15991;DHT22;8100;50.994;4.538;2023-09-19T01:38:11;14.20;99.90
15991;DHT22;8100;50.994;4.538;2023-09-19T01:41:06;14.20;99.90
15991;DHT22;8100;50.994;4.538;2023-09-19T01:44:00;14.10;99.90
15991;DHT22;8100;50.994;4.538;2023-09-19T01:46:50;14.10;99.90
15991;DHT22;8100;50.994;4.538;2023-09-19T01:49:44;14.20;99.90
15991;DHT22;8100;50.994;4.538;2023-09-19T01:52:42;14.10;99.90
15991;DHT22;8100;50.994;4.538;2023-09-19T01:55:37;14.20;99.90
15991;DHT22;8100;50.994;4.538;2023-09-19T01:58:33;14.10;99.90
15991;DHT22;8100;50.994;4.538;2023-09-19T02:01:24;14.10;99.90
15991;DHT22;8100;50.994;4.538;2023-09-19T02:04:12;14.10;99.90
15991;DHT22;8100;50.994;4.538;2023-09-19T02:07:01;14.10;99.90
15991;DHT22;8100;50.994;4.538;2023-09-19T02:09:51;14.00;99.90
15991;DHT22;8100;50.994;4.538;2023-09-19T02:12:38;14.00;99.90
15991;DHT22;8100;50.994;4.538;2023-09-19T02:15:26;14.20;99.90
15991;DHT22;8100;50.994;4.538;2023-09-19T02:18:13;14.20;99.90
15991;DHT22;8100;50.994;4.538;2023-09-19T02:21:00;14.30;82.00
15991;DHT22;8100;50.994;4.538;2023-09-19T02:23:49;14.20;85.60
15991;DHT22;8100;50.994;4.538;2023-09-19T02:26:37;14.30;60.80
15991;DHT22;8100;50.994;4.538;2023-09-19T02:29:24;14.30;44.50
15991;DHT22;8100;50.994;4.538;2023-09-19T02:32:12;14.30;34.90
15991;DHT22;8100;50.994;4.538;2023-09-19T02:35:00;14.40;40.00
15991;DHT22;8100;50.994;4.538;2023-09-19T02:37:47;14.40;56.40
15991;DHT22;8100;50.994;4.538;2023-09-19T02:40:35;14.40;29.70
15991;DHT22;8100;50.994;4.538;2023-09-19T02:43:23;14.40;13.40
15991;DHT22;8100;50.994;4.538;2023-09-19T02:46:10;14.40;9.40
15991;DHT22;8100;50.994;4.538;2023-09-19T02:48:58;14.40;1.00
15991;DHT22;8100;50.994;4.538;2023-09-19T02:51:46;14.50;1.00
15991;DHT22;8100;50.994;4.538;2023-09-19T02:54:33;14.50;1.00
15991;DHT22;8100;50.994;4.538;2023-09-19T02:57:23;14.50;1.00
15991;DHT22;8100;50.994;4.538;2023-09-19T03:00:12;14.50;1.00
15991;DHT22;8100;50.994;4.538;2023-09-19T03:03:00;14.50;1.00
15991;DHT22;8100;50.994;4.538;2023-09-19T03:05:48;14.50;1.00
15991;DHT22;8100;50.994;4.538;2023-09-19T03:08:38;14.50;1.00
15991;DHT22;8100;50.994;4.538;2023-09-19T03:11:28;14.30;1.00
15991;DHT22;8100;50.994;4.538;2023-09-19T03:14:17;14.30;1.00
15991;DHT22;8100;50.994;4.538;2023-09-19T03:17:06;14.30;1.00
15991;DHT22;8100;50.994;4.538;2023-09-19T03:19:55;14.30;1.00
15991;DHT22;8100;50.994;4.538;2023-09-19T03:22:43;14.30;1.00
15991;DHT22;8100;50.994;4.538;2023-09-19T03:25:30;14.40;1.00
15991;DHT22;8100;50.994;4.538;2023-09-19T03:28:17;14.40;1.00
15991;DHT22;8100;50.994;4.538;2023-09-19T03:31:07;14.40;1.00
15991;DHT22;8100;50.994;4.538;2023-09-19T03:33:55;14.40;1.00
15991;DHT22;8100;50.994;4.538;2023-09-19T03:36:42;14.40;1.00
15991;DHT22;8100;50.994;4.538;2023-09-19T03:39:29;14.40;1.00
15991;DHT22;8100;50.994;4.538;2023-09-19T03:42:17;14.40;1.00
15991;DHT22;8100;50.994;4.538;2023-09-19T03:45:11;14.40;1.00
15991;DHT22;8100;50.994;4.538;2023-09-19T03:48:00;14.40;1.00
15991;DHT22;8100;50.994;4.538;2023-09-19T03:50:47;14.40;1.00
15991;DHT22;8100;50.994;4.538;2023-09-19T03:53:34;14.40;1.00
15991;DHT22;8100;50.994;4.538;2023-09-19T03:56:22;14.40;3.10
15991;DHT22;8100;50.994;4.538;2023-09-19T03:59:09;14.40;17.60
15991;DHT22;8100;50.994;4.538;2023-09-19T04:01:57;14.40;1.00
15991;DHT22;8100;50.994;4.538;2023-09-19T04:04:45;14.40;1.00
15991;DHT22;8100;50.994;4.538;2023-09-19T04:07:32;14.40;3.10
15991;DHT22;8100;50.994;4.538;2023-09-19T04:10:20;14.30;24.20
15991;DHT22;8100;50.994;4.538;2023-09-19T04:13:07;14.30;21.50
15991;DHT22;8100;50.994;4.538;2023-09-19T04:15:54;14.30;41.20
15991;DHT22;8100;50.994;4.538;2023-09-19T04:18:42;14.30;62.70
15991;DHT22;8100;50.994;4.538;2023-09-19T04:21:31;14.20;75.80
15991;DHT22;8100;50.994;4.538;2023-09-19T04:24:18;14.20;97.70
15991;DHT22;8100;50.994;4.538;2023-09-19T04:27:06;14.10;99.90
15991;DHT22;8100;50.994;4.538;2023-09-19T04:29:54;14.10;99.90
15991;DHT22;8100;50.994;4.538;2023-09-19T04:32:46;14.00;99.90
15991;DHT22;8100;50.994;4.538;2023-09-19T04:35:36;14.00;99.90
15991;DHT22;8100;50.994;4.538;2023-09-19T04:38:26;14.00;99.90
15991;DHT22;8100;50.994;4.538;2023-09-19T04:41:15;14.00;99.90
15991;DHT22;8100;50.994;4.538;2023-09-19T04:44:02;13.90;99.90
15991;DHT22;8100;50.994;4.538;2023-09-19T04:46:49;14.00;99.90
15991;DHT22;8100;50.994;4.538;2023-09-19T04:49:37;13.90;99.90
15991;DHT22;8100;50.994;4.538;2023-09-19T04:52:25;13.90;99.90
15991;DHT22;8100;50.994;4.538;2023-09-19T04:55:14;13.90;99.90
15991;DHT22;8100;50.994;4.538;2023-09-19T04:58:03;13.90;99.90
15991;DHT22;8100;50.994;4.538;2023-09-19T05:00:50;13.90;99.90
15991;DHT22;8100;50.994;4.538;2023-09-19T05:03:38;13.90;99.90
15991;DHT22;8100;50.994;4.538;2023-09-19T05:06:25;13.90;99.90
15991;DHT22;8100;50.994;4.538;2023-09-19T05:09:13;13.90;99.90
15991;DHT22;8100;50.994;4.538;2023-09-19T05:12:03;13.90;99.90
15991;DHT22;8100;50.994;4.538;2023-09-19T05:14:50;13.80;99.90
15991;DHT22;8100;50.994;4.538;2023-09-19T05:17:38;13.80;99.90
15991;DHT22;8100;50.994;4.538;2023-09-19T05:20:25;13.80;99.90
15991;DHT22;8100;50.994;4.538;2023-09-19T05:23:18;13.80;99.90
15991;DHT22;8100;50.994;4.538;2023-09-19T05:26:06;13.70;99.90
15991;DHT22;8100;50.994;4.538;2023-09-19T05:28:55;13.80;99.90
15991;DHT22;8100;50.994;4.538;2023-09-19T05:31:42;13.80;99.90
15991;DHT22;8100;50.994;4.538;2023-09-19T05:34:30;13.70;99.90
15991;DHT22;8100;50.994;4.538;2023-09-19T05:37:17;13.80;99.90
15991;DHT22;8100;50.994;4.538;2023-09-19T05:40:05;13.80;99.90
15991;DHT22;8100;50.994;4.538;2023-09-19T05:42:56;13.80;99.90
15991;DHT22;8100;50.994;4.538;2023-09-19T05:45:45;13.70;99.90
15991;DHT22;8100;50.994;4.538;2023-09-19T05:48:32;13.80;99.90
15991;DHT22;8100;50.994;4.538;2023-09-19T05:51:19;13.80;99.90
15991;DHT22;8100;50.994;4.538;2023-09-19T05:54:08;13.80;99.90
15991;DHT22;8100;50.994;4.538;2023-09-19T05:56:57;13.90;99.90
15991;DHT22;8100;50.994;4.538;2023-09-19T05:59:44;14.00;99.90
15991;DHT22;8100;50.994;4.538;2023-09-19T06:02:33;14.00;99.90
15991;DHT22;8100;50.994;4.538;2023-09-19T06:05:20;14.00;99.90
15991;DHT22;8100;50.994;4.538;2023-09-19T06:08:07;14.00;99.90
15991;DHT22;8100;50.994;4.538;2023-09-19T06:10:55;14.10;99.90
15991;DHT22;8100;50.994;4.538;2023-09-19T06:13:43;14.10;99.90
15991;DHT22;8100;50.994;4.538;2023-09-19T06:16:33;14.20;99.90
15991;DHT22;8100;50.994;4.538;2023-09-19T06:19:22;14.20;99.90
15991;DHT22;8100;50.994;4.538;2023-09-19T06:22:12;14.20;99.90
15991;DHT22;8100;50.994;4.538;2023-09-19T06:25:02;14.20;99.90
15991;DHT22;8100;50.994;4.538;2023-09-19T06:27:51;14.30;99.90
15991;DHT22;8100;50.994;4.538;2023-09-19T06:30:40;14.40;99.90
15991;DHT22;8100;50.994;4.538;2023-09-19T06:33:27;14.40;99.90
15991;DHT22;8100;50.994;4.538;2023-09-19T06:36:18;14.40;99.90
15991;DHT22;8100;50.994;4.538;2023-09-19T06:39:06;14.40;99.90
15991;DHT22;8100;50.994;4.538;2023-09-19T06:41:56;14.50;99.90
15991;DHT22;8100;50.994;4.538;2023-09-19T06:44:44;14.50;99.90
15991;DHT22;8100;50.994;4.538;2023-09-19T06:47:31;14.60;99.90
15991;DHT22;8100;50.994;4.538;2023-09-19T06:50:20;14.60;99.90
15991;DHT22;8100;50.994;4.538;2023-09-19T06:53:09;14.60;99.90
15991;DHT22;8100;50.994;4.538;2023-09-19T06:55:57;14.60;99.90
15991;DHT22;8100;50.994;4.538;2023-09-19T06:58:44;14.60;99.90
15991;DHT22;8100;50.994;4.538;2023-09-19T07:01:31;14.60;99.90
15991;DHT22;8100;50.994;4.538;2023-09-19T07:04:19;14.70;99.90
15991;DHT22;8100;50.994;4.538;2023-09-19T07:07:07;14.70;99.90
15991;DHT22;8100;50.994;4.538;2023-09-19T07:09:57;14.70;99.90
15991;DHT22;8100;50.994;4.538;2023-09-19T07:12:44;14.70;99.90
15991;DHT22;8100;50.994;4.538;2023-09-19T07:15:33;14.80;99.90
15991;DHT22;8100;50.994;4.538;2023-09-19T07:18:21;14.80;99.90
15991;DHT22;8100;50.994;4.538;2023-09-19T07:21:08;14.80;99.90
15991;DHT22;8100;50.994;4.538;2023-09-19T07:24:01;14.90;90.60
15991;DHT22;8100;50.994;4.538;2023-09-19T07:26:50;14.90;82.50
15991;DHT22;8100;50.994;4.538;2023-09-19T07:29:37;15.00;70.70
15991;DHT22;8100;50.994;4.538;2023-09-19T07:32:25;15.10;74.30
15991;DHT22;8100;50.994;4.538;2023-09-19T07:35:12;15.20;44.80
15991;DHT22;8100;50.994;4.538;2023-09-19T07:38:01;15.20;45.90
15991;DHT22;8100;50.994;4.538;2023-09-19T07:40:48;15.30;38.70
15991;DHT22;8100;50.994;4.538;2023-09-19T07:43:37;15.30;17.10
15991;DHT22;8100;50.994;4.538;2023-09-19T07:46:26;15.40;26.50
15991;DHT22;8100;50.994;4.538;2023-09-19T07:49:13;15.50;1.00
15991;DHT22;8100;50.994;4.538;2023-09-19T07:52:04;15.50;1.00
15991;DHT22;8100;50.994;4.538;2023-09-19T07:54:51;15.50;1.00
15991;DHT22;8100;50.994;4.538;2023-09-19T07:57:39;15.60;1.00
15991;DHT22;8100;50.994;4.538;2023-09-19T08:00:28;15.70;1.00
15991;DHT22;8100;50.994;4.538;2023-09-19T08:03:15;15.70;1.00
15991;DHT22;8100;50.994;4.538;2023-09-19T08:06:04;15.90;1.00
15991;DHT22;8100;50.994;4.538;2023-09-19T08:08:52;15.90;1.00
15991;DHT22;8100;50.994;4.538;2023-09-19T08:11:41;15.90;1.00
15991;DHT22;8100;50.994;4.538;2023-09-19T08:14:28;16.00;1.00
15991;DHT22;8100;50.994;4.538;2023-09-19T08:17:17;15.90;1.00
15991;DHT22;8100;50.994;4.538;2023-09-19T08:20:06;16.00;1.00
15991;DHT22;8100;50.994;4.538;2023-09-19T08:22:54;16.00;1.00
15991;DHT22;8100;50.994;4.538;2023-09-19T08:25:41;16.10;1.00
15991;DHT22;8100;50.994;4.538;2023-09-19T08:28:28;16.20;1.00
15991;DHT22;8100;50.994;4.538;2023-09-19T08:31:15;16.30;1.00
15991;DHT22;8100;50.994;4.538;2023-09-19T08:34:04;16.40;1.00
15991;DHT22;8100;50.994;4.538;2023-09-19T08:36:52;16.40;1.00
15991;DHT22;8100;50.994;4.538;2023-09-19T08:39:42;16.40;1.00
15991;DHT22;8100;50.994;4.538;2023-09-19T08:42:30;16.50;1.00
15991;DHT22;8100;50.994;4.538;2023-09-19T08:45:18;16.60;1.00
15991;DHT22;8100;50.994;4.538;2023-09-19T08:48:16;16.60;1.00
15991;DHT22;8100;50.994;4.538;2023-09-19T08:51:07;16.90;1.00
15991;DHT22;8100;50.994;4.538;2023-09-19T08:54:03;17.10;1.00
15991;DHT22;8100;50.994;4.538;2023-09-19T08:56:54;17.10;1.00
15991;DHT22;8100;50.994;4.538;2023-09-19T08:59:44;17.10;1.00
15991;DHT22;8100;50.994;4.538;2023-09-19T09:02:33;17.10;1.00
15991;DHT22;8100;50.994;4.538;2023-09-19T09:05:22;17.20;1.00
15991;DHT22;8100;50.994;4.538;2023-09-19T09:08:12;17.30;1.00
15991;DHT22;8100;50.994;4.538;2023-09-19T09:10:59;17.60;1.00
15991;DHT22;8100;50.994;4.538;2023-09-19T09:13:47;17.40;1.00
15991;DHT22;8100;50.994;4.538;2023-09-19T09:16:35;17.60;1.00
15991;DHT22;8100;50.994;4.538;2023-09-19T09:19:22;17.70;1.00
15991;DHT22;8100;50.994;4.538;2023-09-19T09:22:11;17.70;1.00
15991;DHT22;8100;50.994;4.538;2023-09-19T09:25:00;17.80;99.90
15991;DHT22;8100;50.994;4.538;2023-09-19T09:27:59;17.70;99.90
15991;DHT22;8100;50.994;4.538;2023-09-19T09:30:48;17.70;1.00
15991;DHT22;8100;50.994;4.538;2023-09-19T09:33:36;17.70;1.00
15991;DHT22;8100;50.994;4.538;2023-09-19T09:36:36;17.70;1.00
15991;DHT22;8100;50.994;4.538;2023-09-19T09:39:32;17.80;99.90
15991;DHT22;8100;50.994;4.538;2023-09-19T09:42:40;17.60;1.00
15991;DHT22;8100;50.994;4.538;2023-09-19T09:45:29;17.60;1.00
15991;DHT22;8100;50.994;4.538;2023-09-19T09:48:25;17.60;99.90
15991;DHT22;8100;50.994;4.538;2023-09-19T09:51:29;17.70;99.90
15991;DHT22;8100;50.994;4.538;2023-09-19T09:54:18;17.70;1.00
15991;DHT22;8100;50.994;4.538;2023-09-19T09:57:07;17.60;99.90
15991;DHT22;8100;50.994;4.538;2023-09-19T10:00:05;17.60;99.90
15991;DHT22;8100;50.994;4.538;2023-09-19T10:03:19;17.70;99.90
15991;DHT22;8100;50.994;4.538;2023-09-19T10:06:10;17.70;99.90
15991;DHT22;8100;50.994;4.538;2023-09-19T10:09:13;17.70;99.90
15991;DHT22;8100;50.994;4.538;2023-09-19T10:12:07;17.70;99.90
15991;DHT22;8100;50.994;4.538;2023-09-19T10:14:56;17.90;99.90
15991;DHT22;8100;50.994;4.538;2023-09-19T10:17:48;18.00;1.00
15991;DHT22;8100;50.994;4.538;2023-09-19T10:20:37;18.10;1.00
15991;DHT22;8100;50.994;4.538;2023-09-19T10:23:25;18.10;1.00
15991;DHT22;8100;50.994;4.538;2023-09-19T10:26:17;18.30;1.00
15991;DHT22;8100;50.994;4.538;2023-09-19T10:29:06;18.40;1.00
15991;DHT22;8100;50.994;4.538;2023-09-19T10:31:56;18.50;1.00
15991;DHT22;8100;50.994;4.538;2023-09-19T10:34:46;18.60;1.00
15991;DHT22;8100;50.994;4.538;2023-09-19T10:37:34;18.70;1.00
15991;DHT22;8100;50.994;4.538;2023-09-19T10:40:24;18.50;1.00
15991;DHT22;8100;50.994;4.538;2023-09-19T10:43:18;18.50;1.00
15991;DHT22;8100;50.994;4.538;2023-09-19T10:46:07;18.60;1.00
15991;DHT22;8100;50.994;4.538;2023-09-19T10:48:59;18.70;1.00
15991;DHT22;8100;50.994;4.538;2023-09-19T10:51:50;18.90;1.00
15991;DHT22;8100;50.994;4.538;2023-09-19T10:54:46;18.90;1.00
15991;DHT22;8100;50.994;4.538;2023-09-19T10:57:37;18.90;1.00
15991;DHT22;8100;50.994;4.538;2023-09-19T11:00:25;19.00;1.00
15991;DHT22;8100;50.994;4.538;2023-09-19T11:03:16;19.20;1.00
15991;DHT22;8100;50.994;4.538;2023-09-19T11:06:09;19.50;1.00
15991;DHT22;8100;50.994;4.538;2023-09-19T11:09:00;19.60;1.00
15991;DHT22;8100;50.994;4.538;2023-09-19T11:12:02;19.30;1.00
15991;DHT22;8100;50.994;4.538;2023-09-19T11:14:51;19.20;1.00
15991;DHT22;8100;50.994;4.538;2023-09-19T11:17:39;19.30;1.00
15991;DHT22;8100;50.994;4.538;2023-09-19T11:20:27;19.30;1.00
15991;DHT22;8100;50.994;4.538;2023-09-19T11:23:29;19.50;1.00
15991;DHT22;8100;50.994;4.538;2023-09-19T11:26:40;19.60;1.00
15991;DHT22;8100;50.994;4.538;2023-09-19T11:29:30;19.60;1.00
15991;DHT22;8100;50.994;4.538;2023-09-19T11:36:00;19.60;1.00
15991;DHT22;8100;50.994;4.538;2023-09-19T11:38:58;19.50;1.00
15991;DHT22;8100;50.994;4.538;2023-09-19T11:41:48;19.50;1.00
15991;DHT22;8100;50.994;4.538;2023-09-19T11:44:42;19.60;1.00
15991;DHT22;8100;50.994;4.538;2023-09-19T11:47:31;20.00;1.00
15991;DHT22;8100;50.994;4.538;2023-09-19T11:50:21;19.90;1.00
15991;DHT22;8100;50.994;4.538;2023-09-19T11:53:10;20.00;1.00
15991;DHT22;8100;50.994;4.538;2023-09-19T11:55:59;19.90;1.00
15991;DHT22;8100;50.994;4.538;2023-09-19T11:58:51;19.70;1.00
15991;DHT22;8100;50.994;4.538;2023-09-19T12:01:43;19.60;1.00
15991;DHT22;8100;50.994;4.538;2023-09-19T12:04:42;19.50;1.00
15991;DHT22;8100;50.994;4.538;2023-09-19T12:07:42;19.50;1.00
15991;DHT22;8100;50.994;4.538;2023-09-19T12:10:30;19.60;1.00
15991;DHT22;8100;50.994;4.538;2023-09-19T12:13:18;19.70;1.00
15991;DHT22;8100;50.994;4.538;2023-09-19T12:16:13;19.50;1.00
15991;DHT22;8100;50.994;4.538;2023-09-19T12:19:20;19.50;1.00
15991;DHT22;8100;50.994;4.538;2023-09-19T12:22:08;19.70;1.00
15991;DHT22;8100;50.994;4.538;2023-09-19T12:25:06;19.90;1.00
15991;DHT22;8100;50.994;4.538;2023-09-19T12:27:54;19.80;1.00
15991;DHT22;8100;50.994;4.538;2023-09-19T12:30:42;19.70;1.00
15991;DHT22;8100;50.994;4.538;2023-09-19T12:33:31;19.70;1.00
15991;DHT22;8100;50.994;4.538;2023-09-19T12:36:21;19.80;1.00
15991;DHT22;8100;50.994;4.538;2023-09-19T12:39:23;20.00;1.00
15991;DHT22;8100;50.994;4.538;2023-09-19T12:42:11;20.00;1.00
15991;DHT22;8100;50.994;4.538;2023-09-19T12:45:01;19.90;1.00
15991;DHT22;8100;50.994;4.538;2023-09-19T12:48:20;19.70;1.00
15991;DHT22;8100;50.994;4.538;2023-09-19T12:51:10;19.60;1.00
15991;DHT22;8100;50.994;4.538;2023-09-19T12:53:58;19.60;1.00
15991;DHT22;8100;50.994;4.538;2023-09-19T12:56:46;19.60;1.00
15991;DHT22;8100;50.994;4.538;2023-09-19T12:59:33;19.60;1.00
15991;DHT22;8100;50.994;4.538;2023-09-19T13:02:22;19.60;1.00
15991;DHT22;8100;50.994;4.538;2023-09-19T13:05:11;19.80;1.00
15991;DHT22;8100;50.994;4.538;2023-09-19T13:08:17;20.00;1.00
15991;DHT22;8100;50.994;4.538;2023-09-19T13:11:10;19.80;1.00
15991;DHT22;8100;50.994;4.538;2023-09-19T13:14:14;19.60;1.00
15991;DHT22;8100;50.994;4.538;2023-09-19T13:17:03;19.40;1.00
15991;DHT22;8100;50.994;4.538;2023-09-19T13:19:52;19.30;1.00
15991;DHT22;8100;50.994;4.538;2023-09-19T13:22:41;19.20;1.00
15991;DHT22;8100;50.994;4.538;2023-09-19T13:25:32;19.20;1.00
15991;DHT22;8100;50.994;4.538;2023-09-19T13:28:20;19.30;1.00
15991;DHT22;8100;50.994;4.538;2023-09-19T13:31:09;19.40;1.00
15991;DHT22;8100;50.994;4.538;2023-09-19T13:33:57;19.60;1.00
15991;DHT22;8100;50.994;4.538;2023-09-19T13:36:45;19.60;1.00
15991;DHT22;8100;50.994;4.538;2023-09-19T13:39:34;19.60;1.00
15991;DHT22;8100;50.994;4.538;2023-09-19T13:42:24;19.60;1.00
15991;DHT22;8100;50.994;4.538;2023-09-19T13:45:11;19.70;1.00
15991;DHT22;8100;50.994;4.538;2023-09-19T13:48:01;19.90;1.00
15991;DHT22;8100;50.994;4.538;2023-09-19T13:50:49;20.20;1.00
15991;DHT22;8100;50.994;4.538;2023-09-19T13:53:36;20.20;1.00
15991;DHT22;8100;50.994;4.538;2023-09-19T13:56:23;20.30;1.00
15991;DHT22;8100;50.994;4.538;2023-09-19T13:59:14;20.10;1.00
15991;DHT22;8100;50.994;4.538;2023-09-19T14:02:02;20.10;1.00
15991;DHT22;8100;50.994;4.538;2023-09-19T14:04:52;20.20;1.00
15991;DHT22;8100;50.994;4.538;2023-09-19T14:07:39;20.10;1.00
15991;DHT22;8100;50.994;4.538;2023-09-19T14:10:27;20.00;1.00
15991;DHT22;8100;50.994;4.538;2023-09-19T14:13:16;20.00;1.00
15991;DHT22;8100;50.994;4.538;2023-09-19T14:16:05;20.50;1.00
15991;DHT22;8100;50.994;4.538;2023-09-19T14:18:54;20.40;1.00
15991;DHT22;8100;50.994;4.538;2023-09-19T14:21:42;20.30;1.00
15991;DHT22;8100;50.994;4.538;2023-09-19T14:24:29;20.40;1.00
15991;DHT22;8100;50.994;4.538;2023-09-19T14:27:17;21.10;1.00
15991;DHT22;8100;50.994;4.538;2023-09-19T14:30:05;21.30;1.00
15991;DHT22;8100;50.994;4.538;2023-09-19T14:32:54;21.00;1.00
15991;DHT22;8100;50.994;4.538;2023-09-19T14:35:41;20.90;1.00
15991;DHT22;8100;50.994;4.538;2023-09-19T14:38:28;21.50;1.00
15991;DHT22;8100;50.994;4.538;2023-09-19T14:41:16;21.30;1.00
15991;DHT22;8100;50.994;4.538;2023-09-19T14:44:03;21.20;1.00
15991;DHT22;8100;50.994;4.538;2023-09-19T14:46:51;22.40;1.00
15991;DHT22;8100;50.994;4.538;2023-09-19T14:49:40;21.50;1.00
15991;DHT22;8100;50.994;4.538;2023-09-19T14:52:27;21.70;1.00
15991;DHT22;8100;50.994;4.538;2023-09-19T14:55:15;22.00;1.00
15991;DHT22;8100;50.994;4.538;2023-09-19T14:58:02;20.80;1.00
15991;DHT22;8100;50.994;4.538;2023-09-19T15:00:49;20.10;1.00
15991;DHT22;8100;50.994;4.538;2023-09-19T15:03:39;19.90;1.00
15991;DHT22;8100;50.994;4.538;2023-09-19T15:06:28;19.90;1.00
15991;DHT22;8100;50.994;4.538;2023-09-19T15:09:16;19.80;1.00
15991;DHT22;8100;50.994;4.538;2023-09-19T15:12:05;19.70;1.00
15991;DHT22;8100;50.994;4.538;2023-09-19T15:14:53;19.50;1.00
15991;DHT22;8100;50.994;4.538;2023-09-19T15:17:40;19.50;1.00
15991;DHT22;8100;50.994;4.538;2023-09-19T15:20:27;19.40;1.00
15991;DHT22;8100;50.994;4.538;2023-09-19T15:23:16;19.40;1.00
15991;DHT22;8100;50.994;4.538;2023-09-19T15:26:05;19.40;1.00
15991;DHT22;8100;50.994;4.538;2023-09-19T15:28:52;19.30;1.00
15991;DHT22;8100;50.994;4.538;2023-09-19T15:31:40;19.40;1.00
15991;DHT22;8100;50.994;4.538;2023-09-19T15:34:27;19.40;1.00
15991;DHT22;8100;50.994;4.538;2023-09-19T15:37:15;19.30;1.00
15991;DHT22;8100;50.994;4.538;2023-09-19T15:40:05;19.30;1.00
15991;DHT22;8100;50.994;4.538;2023-09-19T15:42:56;19.30;1.00
15991;DHT22;8100;50.994;4.538;2023-09-19T15:45:44;19.20;1.00
15991;DHT22;8100;50.994;4.538;2023-09-19T15:48:31;19.20;1.00
15991;DHT22;8100;50.994;4.538;2023-09-19T15:51:18;19.10;1.00
15991;DHT22;8100;50.994;4.538;2023-09-19T15:54:08;19.10;1.00
15991;DHT22;8100;50.994;4.538;2023-09-19T15:56:59;19.10;1.00
15991;DHT22;8100;50.994;4.538;2023-09-19T15:59:47;19.00;1.00
15991;DHT22;8100;50.994;4.538;2023-09-19T16:02:35;19.00;1.00
15991;DHT22;8100;50.994;4.538;2023-09-19T16:05:23;19.10;1.00
15991;DHT22;8100;50.994;4.538;2023-09-19T16:08:10;19.10;1.00
15991;DHT22;8100;50.994;4.538;2023-09-19T16:10:57;19.00;1.00
15991;DHT22;8100;50.994;4.538;2023-09-19T16:13:48;19.00;1.00
15991;DHT22;8100;50.994;4.538;2023-09-19T16:16:35;19.00;1.00
15991;DHT22;8100;50.994;4.538;2023-09-19T16:19:24;19.00;1.00
15991;DHT22;8100;50.994;4.538;2023-09-19T16:22:11;19.00;1.00
15991;DHT22;8100;50.994;4.538;2023-09-19T16:24:59;19.00;1.00
15991;DHT22;8100;50.994;4.538;2023-09-19T16:27:46;19.00;1.00
15991;DHT22;8100;50.994;4.538;2023-09-19T16:30:35;19.00;1.00
15991;DHT22;8100;50.994;4.538;2023-09-19T16:33:24;19.00;1.00
15991;DHT22;8100;50.994;4.538;2023-09-19T16:36:13;19.00;1.00
15991;DHT22;8100;50.994;4.538;2023-09-19T16:39:00;19.00;1.00
15991;DHT22;8100;50.994;4.538;2023-09-19T16:41:49;18.90;1.00
15991;DHT22;8100;50.994;4.538;2023-09-19T16:44:37;18.90;1.00
15991;DHT22;8100;50.994;4.538;2023-09-19T16:47:26;18.90;1.00
15991;DHT22;8100;50.994;4.538;2023-09-19T16:50:13;18.90;1.00
15991;DHT22;8100;50.994;4.538;2023-09-19T16:53:00;18.90;1.00
15991;DHT22;8100;50.994;4.538;2023-09-19T16:55:49;18.90;1.00
15991;DHT22;8100;50.994;4.538;2023-09-19T16:58:36;18.80;1.00
15991;DHT22;8100;50.994;4.538;2023-09-19T17:01:24;18.80;1.00
15991;DHT22;8100;50.994;4.538;2023-09-19T17:04:14;18.80;1.00
15991;DHT22;8100;50.994;4.538;2023-09-19T17:07:01;18.80;1.00
15991;DHT22;8100;50.994;4.538;2023-09-19T17:09:49;18.80;1.00
15991;DHT22;8100;50.994;4.538;2023-09-19T17:12:36;18.70;1.00
15991;DHT22;8100;50.994;4.538;2023-09-19T17:15:24;18.70;1.00
15991;DHT22;8100;50.994;4.538;2023-09-19T17:18:12;18.70;1.00
15991;DHT22;8100;50.994;4.538;2023-09-19T17:21:01;18.60;22.70
15991;DHT22;8100;50.994;4.538;2023-09-19T17:23:49;18.50;99.90
15991;DHT22;8100;50.994;4.538;2023-09-19T17:26:38;18.50;99.90
15991;DHT22;8100;50.994;4.538;2023-09-19T17:29:26;18.50;99.90
15991;DHT22;8100;50.994;4.538;2023-09-19T17:32:13;18.50;99.90
15991;DHT22;8100;50.994;4.538;2023-09-19T17:35:01;18.40;99.90
15991;DHT22;8100;50.994;4.538;2023-09-19T17:37:50;18.40;99.90
15991;DHT22;8100;50.994;4.538;2023-09-19T17:40:39;18.30;1.00
15991;DHT22;8100;50.994;4.538;2023-09-19T17:43:26;18.30;1.00
15991;DHT22;8100;50.994;4.538;2023-09-19T17:46:15;18.30;1.00
15991;DHT22;8100;50.994;4.538;2023-09-19T17:49:03;18.30;1.00
15991;DHT22;8100;50.994;4.538;2023-09-19T17:51:50;18.20;1.00
15991;DHT22;8100;50.994;4.538;2023-09-19T17:54:40;18.20;1.00
15991;DHT22;8100;50.994;4.538;2023-09-19T17:57:27;18.20;1.00
15991;DHT22;8100;50.994;4.538;2023-09-19T18:00:15;18.20;1.00
15991;DHT22;8100;50.994;4.538;2023-09-19T18:03:02;18.10;1.00
15991;DHT22;8100;50.994;4.538;2023-09-19T18:05:51;18.00;99.90
15991;DHT22;8100;50.994;4.538;2023-09-19T18:08:39;18.00;1.00
15991;DHT22;8100;50.994;4.538;2023-09-19T18:11:28;17.90;55.90
15991;DHT22;8100;50.994;4.538;2023-09-19T18:14:16;17.90;99.90
15991;DHT22;8100;50.994;4.538;2023-09-19T18:17:04;17.90;99.90
15991;DHT22;8100;50.994;4.538;2023-09-19T18:19:52;17.90;99.90
15991;DHT22;8100;50.994;4.538;2023-09-19T18:22:39;17.90;99.90